Time;durP1;ratioP1;P1;durP2;ratioP2;P2;SDS_P1;SDS_P2;PMS_P1;PMS_P2;Temp;Humidity;BMP_temperature;BMP_pressure;BME280_temperature;BME280_humidity;BME280_pressure;Samples;Min_cycle;Max_cycle;Signal;HPM_P1;HPM_P2
2021/09/17 00:00:27;;;;;;;8.63;5.03;;;23.90;98.60;;;;;;5055599;28;20226;-63
2021/09/17 00:02:53;;;;;;;11.17;4.77;;;23.80;98.60;;;;;;5055263;28;20163;-65
2021/09/17 00:05:18;;;;;;;9.33;5.20;;;23.80;98.80;;;;;;5053976;28;21012;-63
2021/09/17 00:07:44;;;;;;;10.40;5.40;;;23.80;98.80;;;;;;5055124;28;20543;-64
2021/09/17 00:10:10;;;;;;;7.90;4.60;;;23.70;98.90;;;;;;5055074;28;20255;-63
2021/09/17 00:12:36;;;;;;;10.20;5.47;;;23.70;99.40;;;;;;5055165;28;20166;-65
2021/09/17 00:15:02;;;;;;;11.30;5.20;;;23.70;99.20;;;;;;5053694;28;20473;-63
2021/09/17 00:17:27;;;;;;;8.67;5.00;;;23.70;99.40;;;;;;5089803;28;20308;-64
2021/09/17 00:19:53;;;;;;;11.27;6.90;;;23.60;99.50;;;;;;5095364;28;20471;-65
2021/09/17 00:22:19;;;;;;;11.83;6.10;;;23.60;99.60;;;;;;5076847;28;20207;-64
2021/09/17 00:24:44;;;;;;;12.27;6.53;;;23.60;99.70;;;;;;5095172;28;20641;-63
2021/09/17 00:27:10;;;;;;;13.73;5.53;;;23.50;99.90;;;;;;5094954;28;20272;-63
2021/09/17 00:29:35;;;;;;;13.30;5.03;;;23.50;99.90;;;;;;5094775;28;20200;-64
2021/09/17 00:32:01;;;;;;;9.50;6.67;;;23.50;99.90;;;;;;5094822;28;20172;-64
2021/09/17 00:34:27;;;;;;;10.83;6.17;;;23.40;99.90;;;;;;5094953;28;20207;-64
2021/09/17 00:36:52;;;;;;;16.97;6.40;;;23.40;99.90;;;;;;5076527;28;20224;-63
2021/09/17 00:39:18;;;;;;;15.13;5.93;;;23.30;99.90;;;;;;5094862;28;20213;-63
2021/09/17 00:41:43;;;;;;;6.83;5.43;;;23.30;99.90;;;;;;5094724;28;20292;-64
2021/09/17 00:44:10;;;;;;;9.77;5.00;;;23.20;99.90;;;;;;5094787;28;20724;-63
2021/09/17 00:46:36;;;;;;;4.93;4.10;;;23.10;99.90;;;;;;5094598;28;20629;-63
2021/09/17 00:49:03;;;;;;;16.80;5.50;;;23.10;99.90;;;;;;5094191;28;20445;-65
2021/09/17 00:51:29;;;;;;;8.77;5.73;;;23.00;99.90;;;;;;5094361;28;20483;-63
2021/09/17 00:53:54;;;;;;;6.57;5.13;;;22.90;99.90;;;;;;5094453;28;20552;-63
2021/09/17 00:56:20;;;;;;;11.23;4.60;;;22.90;99.90;;;;;;5076222;28;20230;-63
2021/09/17 00:58:46;;;;;;;9.30;4.60;;;22.90;99.90;;;;;;5094375;28;20203;-63
2021/09/17 01:01:12;;;;;;;7.30;4.90;;;22.80;99.90;;;;;;5094123;28;20454;-63
2021/09/17 01:03:38;;;;;;;10.50;4.40;;;22.70;99.90;;;;;;5094288;28;20207;-63
2021/09/17 01:06:03;;;;;;;7.87;5.17;;;22.70;99.90;;;;;;5076120;28;20172;-64
2021/09/17 01:08:31;;;;;;;10.03;5.50;;;22.60;99.90;;;;;;5075759;28;20431;-63
2021/09/17 01:10:58;;;;;;;9.47;4.90;;;22.60;99.90;;;;;;5093980;28;20294;-63
2021/09/17 01:13:24;;;;;;;6.40;4.57;;;22.60;99.90;;;;;;5094074;28;20448;-63
2021/09/17 01:15:50;;;;;;;7.43;4.90;;;22.60;99.90;;;;;;5093813;28;20524;-63
2021/09/17 01:18:16;;;;;;;8.07;4.97;;;22.60;99.90;;;;;;5076012;28;20173;-63
2021/09/17 01:20:41;;;;;;;8.50;4.20;;;22.60;99.90;;;;;;5075771;28;20466;-65
2021/09/17 01:23:07;;;;;;;7.87;4.60;;;22.60;99.90;;;;;;5094033;28;20459;-64
2021/09/17 01:25:33;;;;;;;10.63;5.57;;;22.60;99.90;;;;;;5094333;28;20253;-63
2021/09/17 01:27:58;;;;;;;10.73;5.33;;;22.60;99.90;;;;;;5093932;28;20222;-64
2021/09/17 01:30:24;;;;;;;7.90;4.90;;;22.60;99.90;;;;;;5094045;28;20245;-65
2021/09/17 01:32:51;;;;;;;6.47;4.50;;;22.60;99.90;;;;;;5093942;28;20183;-65
2021/09/17 01:35:18;;;;;;;14.20;4.80;;;22.60;99.90;;;;;;5076101;28;20234;-65
2021/09/17 01:37:45;;;;;;;9.87;4.57;;;22.60;99.90;;;;;;5093857;28;20405;-65
2021/09/17 01:40:13;;;;;;;7.57;4.20;;;22.60;99.90;;;;;;5093713;28;20460;-63
2021/09/17 01:42:39;;;;;;;6.33;4.07;;;22.60;99.90;;;;;;5093823;28;20417;-63
2021/09/17 01:45:05;;;;;;;9.00;5.00;;;22.60;99.90;;;;;;5075791;28;20479;-63
2021/09/17 01:47:31;;;;;;;11.37;3.90;;;22.60;99.90;;;;;;5075589;28;20409;-64
2021/09/17 01:49:57;;;;;;;8.73;4.10;;;22.60;99.90;;;;;;5093607;28;20455;-64
2021/09/17 01:52:23;;;;;;;6.70;3.93;;;22.60;99.90;;;;;;5093826;28;20180;-64
2021/09/17 01:54:48;;;;;;;6.97;4.40;;;22.60;99.90;;;;;;5093838;28;20584;-63
2021/09/17 01:57:14;;;;;;;7.20;4.10;;;22.60;99.90;;;;;;5093740;28;20172;-66
2021/09/17 01:59:40;;;;;;;7.77;4.80;;;22.60;99.90;;;;;;5093877;28;20196;-63
2021/09/17 02:02:06;;;;;;;7.93;3.80;;;22.50;99.90;;;;;;5093690;28;20487;-65
2021/09/17 02:04:31;;;;;;;6.80;4.70;;;22.50;99.90;;;;;;5093764;28;20236;-64
2021/09/17 02:06:57;;;;;;;7.87;4.47;;;22.50;99.90;;;;;;5093554;28;20180;-64
2021/09/17 02:09:22;;;;;;;10.77;4.93;;;22.40;99.90;;;;;;5093291;28;20200;-63
2021/09/17 02:11:48;;;;;;;6.13;4.37;;;22.40;99.90;;;;;;5094554;28;20207;-63
2021/09/17 02:14:14;;;;;;;7.97;4.33;;;22.40;99.90;;;;;;5079388;28;20627;-65
2021/09/17 02:16:41;;;;;;;7.80;4.30;;;22.30;99.90;;;;;;5097178;28;20246;-63
2021/09/17 02:19:08;;;;;;;12.23;5.43;;;22.30;99.90;;;;;;5097498;28;20221;-63
2021/09/17 02:21:34;;;;;;;7.70;4.50;;;22.30;99.90;;;;;;5097377;28;20409;-65
2021/09/17 02:24:00;;;;;;;7.83;5.00;;;22.20;99.90;;;;;;5078839;28;20844;-64
2021/09/17 02:26:26;;;;;;;12.83;5.47;;;22.20;99.90;;;;;;5097370;28;20405;-64
2021/09/17 02:28:51;;;;;;;15.30;5.50;;;22.10;99.90;;;;;;5097000;28;20435;-63
2021/09/17 02:31:17;;;;;;;7.33;5.70;;;22.10;99.90;;;;;;5097050;28;20172;-65
2021/09/17 02:33:43;;;;;;;8.50;4.97;;;22.10;99.90;;;;;;5078846;28;20333;-63
2021/09/17 02:36:08;;;;;;;9.43;5.47;;;22.10;99.90;;;;;;5097061;28;20204;-65
2021/09/17 02:38:35;;;;;;;10.77;5.57;;;22.10;99.90;;;;;;5096928;28;20598;-65
2021/09/17 02:41:01;;;;;;;5.77;4.90;;;22.10;99.90;;;;;;5096945;28;20180;-64
2021/09/17 02:43:27;;;;;;;9.37;5.43;;;22.10;99.90;;;;;;5096831;28;20760;-63
2021/09/17 02:45:53;;;;;;;10.67;5.40;;;22.10;99.90;;;;;;5096989;28;20409;-63
2021/09/17 02:48:18;;;;;;;11.23;5.97;;;22.10;99.90;;;;;;5096896;28;20169;-63
2021/09/17 02:50:44;;;;;;;9.27;5.67;;;22.00;99.90;;;;;;5096454;28;20432;-63
2021/09/17 02:53:10;;;;;;;9.13;5.13;;;22.10;99.90;;;;;;5078634;28;20275;-64
2021/09/17 02:55:35;;;;;;;6.60;5.03;;;22.00;99.90;;;;;;5078582;28;20692;-64
2021/09/17 02:58:05;;;;;;;7.33;5.30;;;22.00;99.90;;;;;;5096630;28;20176;-63
2021/09/17 03:00:31;;;;;;;9.80;6.60;;;22.10;99.90;;;;;;5097163;28;20204;-63
2021/09/17 03:02:57;;;;;;;7.20;4.53;;;22.10;99.90;;;;;;5096520;28;20397;-64
2021/09/17 03:05:22;;;;;;;8.90;4.70;;;22.20;99.90;;;;;;5096502;28;20597;-63
2021/09/17 03:07:48;;;;;;;7.27;5.20;;;22.20;99.90;;;;;;5096469;28;20398;-64
2021/09/17 03:10:14;;;;;;;8.33;5.23;;;22.20;99.90;;;;;;5096453;28;20192;-63
2021/09/17 03:12:40;;;;;;;8.07;5.33;;;22.20;99.90;;;;;;5096339;28;20255;-63
2021/09/17 03:15:06;;;;;;;9.70;5.50;;;22.20;99.90;;;;;;5096117;28;20580;-63
2021/09/17 03:17:32;;;;;;;8.10;4.23;;;22.30;99.90;;;;;;5096354;28;20235;-64
2021/09/17 03:19:58;;;;;;;8.67;5.43;;;22.30;99.90;;;;;;5078094;28;20806;-63
2021/09/17 03:22:23;;;;;;;13.43;6.27;;;22.30;99.90;;;;;;5096145;28;20215;-64
2021/09/17 03:24:49;;;;;;;8.80;6.13;;;22.30;99.90;;;;;;5096340;28;20665;-63
2021/09/17 03:27:14;;;;;;;13.43;6.60;;;22.30;99.90;;;;;;5077956;28;20671;-65
2021/09/17 03:29:41;;;;;;;13.90;6.77;;;22.30;99.90;;;;;;5095517;28;20232;-63
2021/09/17 03:32:07;;;;;;;9.97;6.30;;;22.30;99.90;;;;;;5078015;28;20547;-63
2021/09/17 03:34:32;;;;;;;10.33;5.33;;;22.30;99.90;;;;;;5096331;28;21069;-63
2021/09/17 03:36:58;;;;;;;11.40;5.97;;;22.30;99.90;;;;;;5095885;28;20461;-65
2021/09/17 03:39:23;;;;;;;9.27;5.80;;;22.30;99.90;;;;;;5096002;28;20279;-63
2021/09/17 03:41:49;;;;;;;13.50;6.60;;;22.30;99.90;;;;;;5095892;28;20640;-64
2021/09/17 03:44:16;;;;;;;12.40;6.50;;;22.30;99.90;;;;;;5077570;28;20208;-66
2021/09/17 03:46:42;;;;;;;16.10;6.47;;;22.30;99.90;;;;;;5095751;28;20168;-64
2021/09/17 03:49:08;;;;;;;9.73;6.03;;;22.40;99.90;;;;;;5095513;28;20451;-64
2021/09/17 03:51:34;;;;;;;12.80;6.00;;;22.40;99.90;;;;;;5095924;28;20403;-66
2021/09/17 03:54:00;;;;;;;9.83;5.60;;;22.40;99.90;;;;;;5095615;28;20933;-63
2021/09/17 03:56:26;;;;;;;15.47;6.57;;;22.40;99.90;;;;;;5095613;28;20287;-65
2021/09/17 03:58:51;;;;;;;16.53;6.70;;;22.40;99.90;;;;;;5077195;28;20258;-64
2021/09/17 04:01:17;;;;;;;13.33;6.33;;;22.40;99.90;;;;;;5095494;28;20164;-64
2021/09/17 04:03:42;;;;;;;10.67;6.23;;;22.40;99.90;;;;;;5095341;28;20192;-63
2021/09/17 04:06:08;;;;;;;8.13;5.60;;;22.40;99.90;;;;;;5095434;28;20541;-65
2021/09/17 04:08:34;;;;;;;14.03;5.47;;;22.40;99.90;;;;;;5077125;28;20204;-64
2021/09/17 04:10:59;;;;;;;9.47;5.50;;;22.40;99.90;;;;;;5094922;28;20177;-64
2021/09/17 04:13:25;;;;;;;8.40;6.30;;;22.40;99.90;;;;;;5095102;28;20172;-64
2021/09/17 04:15:50;;;;;;;11.13;5.77;;;22.40;99.90;;;;;;5094944;28;20329;-64
2021/09/17 04:18:17;;;;;;;11.23;7.30;;;22.40;99.90;;;;;;5094816;28;20161;-65
2021/09/17 04:20:42;;;;;;;8.63;5.40;;;22.40;99.90;;;;;;5095064;28;20181;-64
2021/09/17 04:23:08;;;;;;;14.10;7.07;;;22.40;99.90;;;;;;5095174;28;20412;-65
2021/09/17 04:25:34;;;;;;;10.20;6.50;;;22.30;99.90;;;;;;5095365;28;20211;-64
2021/09/17 04:27:59;;;;;;;12.03;6.17;;;22.30;99.90;;;;;;5072285;28;20181;-66
2021/09/17 04:30:26;;;;;;;15.40;6.30;;;22.30;99.90;;;;;;5072779;28;20607;-65
2021/09/17 04:32:51;;;;;;;9.70;5.80;;;22.30;99.90;;;;;;5074545;28;20183;-64
2021/09/17 04:35:18;;;;;;;10.67;5.77;;;22.30;99.90;;;;;;5074326;28;20555;-64
2021/09/17 04:37:46;;;;;;;8.80;5.50;;;22.20;99.90;;;;;;5074480;28;20400;-64
2021/09/17 04:40:14;;;;;;;11.10;5.67;;;22.20;99.90;;;;;;5070585;28;20450;-64
2021/09/17 04:42:40;;;;;;;8.23;6.10;;;22.20;99.90;;;;;;5091178;28;20833;-64
2021/09/17 04:45:06;;;;;;;10.70;6.33;;;22.20;99.90;;;;;;5094614;28;20445;-64
2021/09/17 04:47:32;;;;;;;13.00;6.17;;;22.10;99.90;;;;;;5094141;28;20177;-64
2021/09/17 04:49:59;;;;;;;9.50;5.70;;;22.00;99.90;;;;;;5093682;28;20891;-64
2021/09/17 04:52:25;;;;;;;9.50;5.73;;;22.00;99.90;;;;;;5094883;28;20637;-66
2021/09/17 04:54:51;;;;;;;6.97;6.27;;;22.00;99.90;;;;;;5094291;28;20448;-64
2021/09/17 04:57:18;;;;;;;7.87;5.57;;;21.90;99.90;;;;;;5076239;28;20405;-66
2021/09/17 04:59:43;;;;;;;15.27;6.07;;;21.90;99.90;;;;;;5101062;28;20451;-64
2021/09/17 05:02:09;;;;;;;8.03;5.57;;;21.80;99.90;;;;;;5095665;28;20413;-65
2021/09/17 05:04:35;;;;;;;9.60;6.33;;;21.80;99.90;;;;;;5104703;28;20552;-64
2021/09/17 05:07:00;;;;;;;14.47;6.93;;;21.80;99.90;;;;;;5098257;28;20194;-65
2021/09/17 05:09:26;;;;;;;9.83;6.60;;;21.80;99.90;;;;;;5093993;28;20200;-64
2021/09/17 05:11:52;;;;;;;9.43;5.20;;;21.80;99.90;;;;;;5076627;28;20563;-64
2021/09/17 05:14:18;;;;;;;10.80;5.03;;;21.80;99.90;;;;;;5095533;28;20456;-64
2021/09/17 05:16:46;;;;;;;9.13;4.73;;;21.80;99.90;;;;;;5085353;28;20559;-64
2021/09/17 05:19:12;;;;;;;10.47;5.70;;;21.80;99.90;;;;;;5091873;28;20208;-65
2021/09/17 05:21:38;;;;;;;9.30;6.90;;;21.80;99.90;;;;;;5098899;28;20426;-64
2021/09/17 05:24:04;;;;;;;8.97;4.87;;;21.80;99.90;;;;;;5100162;28;20505;-64
2021/09/17 05:26:29;;;;;;;9.57;5.80;;;21.80;99.90;;;;;;5093558;28;20175;-64
2021/09/17 05:28:55;;;;;;;9.77;5.70;;;21.80;99.90;;;;;;5093770;28;20200;-64
2021/09/17 05:31:21;;;;;;;35.17;17.10;;;21.80;99.90;;;;;;5092517;28;20263;-65
2021/09/17 05:33:46;;;;;;;13.40;8.17;;;21.80;99.90;;;;;;5093636;28;20253;-65
2021/09/17 05:36:12;;;;;;;13.23;5.93;;;21.80;99.90;;;;;;5093763;28;20250;-65
2021/09/17 05:38:38;;;;;;;6.77;5.00;;;21.80;99.90;;;;;;5093414;28;20204;-66
2021/09/17 05:41:03;;;;;;;9.90;5.40;;;21.90;99.90;;;;;;5096617;28;20248;-65
2021/09/17 05:43:29;;;;;;;7.63;5.30;;;21.90;99.90;;;;;;5082713;28;20188;-64
2021/09/17 05:45:54;;;;;;;8.83;5.50;;;21.90;99.90;;;;;;5099279;28;20183;-64
2021/09/17 05:48:20;;;;;;;9.73;5.87;;;21.90;99.90;;;;;;5101272;28;20191;-66
2021/09/17 05:50:45;;;;;;;11.63;5.33;;;21.90;99.90;;;;;;5086185;28;20191;-64
2021/09/17 05:53:12;;;;;;;9.40;5.33;;;21.90;99.90;;;;;;5102509;28;20191;-66
2021/09/17 05:55:38;;;;;;;9.27;5.03;;;21.90;99.90;;;;;;5093460;28;20722;-64
2021/09/17 05:58:03;;;;;;;7.87;4.60;;;21.90;99.90;;;;;;5077914;28;20429;-66
2021/09/17 06:00:29;;;;;;;8.87;5.00;;;22.00;99.90;;;;;;5093305;28;20203;-66
2021/09/17 06:02:54;;;;;;;7.77;5.07;;;22.10;99.90;;;;;;5085288;28;20177;-64
2021/09/17 06:05:20;;;;;;;13.20;5.83;;;22.10;99.90;;;;;;5085247;28;20196;-66
2021/09/17 06:07:46;;;;;;;9.80;6.10;;;22.10;99.90;;;;;;5085276;28;20211;-65
2021/09/17 06:10:13;;;;;;;11.50;5.03;;;22.10;99.90;;;;;;5063678;28;20199;-64
2021/09/17 06:12:39;;;;;;;8.70;5.37;;;22.10;99.90;;;;;;5068687;28;20185;-64
2021/09/17 06:15:06;;;;;;;15.03;5.20;;;22.10;99.90;;;;;;5086880;28;20460;-64
2021/09/17 06:17:31;;;;;;;7.83;5.80;;;22.10;99.90;;;;;;5092978;28;20492;-65
2021/09/17 06:19:57;;;;;;;8.53;5.07;;;22.10;99.90;;;;;;5085218;28;20472;-64
2021/09/17 06:22:23;;;;;;;8.47;5.47;;;22.20;99.90;;;;;;5087653;28;20177;-64
2021/09/17 06:24:48;;;;;;;7.47;5.60;;;22.20;99.90;;;;;;5074605;28;21185;-65
2021/09/17 06:27:14;;;;;;;10.57;5.60;;;22.20;99.90;;;;;;5087003;28;20486;-66
2021/09/17 06:29:39;;;;;;;12.20;5.60;;;22.30;99.90;;;;;;5078356;28;20208;-67
2021/09/17 06:32:05;;;;;;;11.33;5.00;;;22.30;99.90;;;;;;5070129;28;20179;-65
2021/09/17 06:34:32;;;;;;;15.07;5.50;;;22.40;99.90;;;;;;5072753;28;20204;-66
2021/09/17 06:36:58;;;;;;;8.33;5.60;;;22.40;99.90;;;;;;5072454;28;20823;-67
2021/09/17 06:39:24;;;;;;;11.90;5.47;;;22.50;99.90;;;;;;5088279;28;20456;-64
2021/09/17 06:41:50;;;;;;;8.77;5.10;;;22.50;99.90;;;;;;5088389;28;20459;-66
2021/09/17 06:44:16;;;;;;;13.27;5.63;;;22.50;99.90;;;;;;5087831;28;20854;-64
2021/09/17 06:46:42;;;;;;;11.93;5.00;;;22.60;99.90;;;;;;5073234;28;20464;-64
2021/09/17 06:49:07;;;;;;;6.17;4.33;;;22.60;99.90;;;;;;5082382;28;20700;-65
2021/09/17 06:51:33;;;;;;;8.30;4.40;;;22.70;99.90;;;;;;5093818;28;20190;-65
2021/09/17 06:53:59;;;;;;;7.80;5.27;;;22.70;99.90;;;;;;5092780;28;20196;-66
2021/09/17 06:56:24;;;;;;;7.40;4.13;;;22.80;99.90;;;;;;5090831;28;20208;-65
2021/09/17 06:58:50;;;;;;;8.70;4.40;;;22.90;99.90;;;;;;5094237;28;20209;-64
2021/09/17 07:01:16;;;;;;;6.03;4.10;;;22.90;99.90;;;;;;5086279;28;20204;-65
2021/09/17 07:03:41;;;;;;;9.20;5.10;;;23.00;99.90;;;;;;5090192;28;20281;-65
2021/09/17 07:06:07;;;;;;;14.53;7.50;;;23.00;99.90;;;;;;5086600;28;20223;-65
2021/09/17 07:08:33;;;;;;;6.17;3.77;;;23.00;99.90;;;;;;5081255;28;20201;-64
2021/09/17 07:10:58;;;;;;;4.40;3.43;;;23.10;99.90;;;;;;5084521;28;20180;-65
2021/09/17 07:13:24;;;;;;;4.90;3.23;;;23.20;99.90;;;;;;5069384;28;20203;-65
2021/09/17 07:15:50;;;;;;;10.33;3.80;;;23.20;99.90;;;;;;5092998;28;20762;-65
2021/09/17 07:18:15;;;;;;;6.77;3.93;;;23.30;99.90;;;;;;5087730;28;20203;-64
2021/09/17 07:20:41;;;;;;;5.83;3.67;;;23.40;99.90;;;;;;5070363;28;20188;-66
2021/09/17 07:23:07;;;;;;;5.17;3.67;;;23.50;99.90;;;;;;5085787;28;20718;-65
2021/09/17 07:25:34;;;;;;;4.40;4.00;;;23.60;99.90;;;;;;5082316;28;20441;-64
2021/09/17 07:28:00;;;;;;;4.77;3.70;;;23.70;99.90;;;;;;5083134;28;20433;-64
2021/09/17 07:30:26;;;;;;;6.40;3.70;;;23.80;99.90;;;;;;5084717;28;20458;-65
2021/09/17 07:32:52;;;;;;;5.80;3.90;;;23.90;99.90;;;;;;5065953;28;20418;-66
2021/09/17 07:35:18;;;;;;;8.23;3.87;;;24.00;99.90;;;;;;5066199;28;20216;-66
2021/09/17 07:37:45;;;;;;;5.60;3.80;;;24.10;99.90;;;;;;5088624;28;20409;-67
2021/09/17 07:40:14;;;;;;;5.73;3.83;;;24.10;99.90;;;;;;5085044;28;20462;-65
2021/09/17 07:42:41;;;;;;;6.17;3.97;;;24.20;99.90;;;;;;5083943;28;20430;-64
2021/09/17 07:45:07;;;;;;;4.80;3.03;;;24.30;99.90;;;;;;5084581;28;20841;-66
2021/09/17 07:47:33;;;;;;;4.40;3.77;;;24.40;99.90;;;;;;5066701;28;20413;-64
2021/09/17 07:49:59;;;;;;;5.03;3.80;;;24.50;99.90;;;;;;5077561;28;20814;-66
2021/09/17 07:52:25;;;;;;;5.63;3.60;;;24.60;99.90;;;;;;5087099;28;20963;-66
2021/09/17 07:54:51;;;;;;;4.50;3.60;;;24.70;99.90;;;;;;5069947;28;20214;-65
2021/09/17 07:57:17;;;;;;;3.40;2.60;;;24.80;99.90;;;;;;5073244;28;20475;-65
2021/09/17 07:59:42;;;;;;;8.20;3.00;;;24.90;99.90;;;;;;5075871;28;20570;-67
2021/09/17 08:02:08;;;;;;;2.80;2.60;;;25.00;99.90;;;;;;5083789;28;20175;-66
2021/09/17 08:04:37;;;;;;;4.83;2.40;;;25.10;99.90;;;;;;5089001;28;20206;-67
2021/09/17 08:07:04;;;;;;;5.67;3.17;;;25.20;99.90;;;;;;5093492;28;20186;-66
2021/09/17 08:09:30;;;;;;;5.23;3.00;;;25.30;99.90;;;;;;5083411;28;20472;-66
2021/09/17 08:11:55;;;;;;;3.57;2.70;;;25.50;99.90;;;;;;5092559;28;20421;-65
2021/09/17 08:14:21;;;;;;;3.47;2.73;;;25.60;99.90;;;;;;5067967;28;20206;-65
2021/09/17 08:16:46;;;;;;;4.50;2.67;;;25.80;99.90;;;;;;5089288;28;20243;-64
2021/09/17 08:19:12;;;;;;;3.47;2.50;;;25.90;99.90;;;;;;5068906;28;20294;-64
2021/09/17 08:21:41;;;;;;;2.73;2.30;;;25.90;99.90;;;;;;5072903;28;20180;-65
2021/09/17 08:24:13;;;;;;;4.03;2.47;;;25.80;99.90;;;;;;5070499;28;20774;-64
2021/09/17 08:26:44;;;;;;;3.13;1.90;;;25.80;99.90;;;;;;5075515;28;20485;-65
2021/09/17 08:29:10;;;;;;;3.77;2.57;;;25.80;99.90;;;;;;5086542;28;20976;-65
2021/09/17 08:31:37;;;;;;;1.40;1.30;;;25.70;99.90;;;;;;5083750;28;20417;-65
2021/09/17 08:34:05;;;;;;;1.40;1.30;;;25.60;99.90;;;;;;5083735;28;20522;-66
2021/09/17 08:36:30;;;;;;;2.90;1.20;;;25.60;99.90;;;;;;5089172;28;20479;-65
2021/09/17 08:38:56;;;;;;;2.60;1.70;;;25.60;99.90;;;;;;5088576;28;20465;-64
2021/09/17 08:41:22;;;;;;;1.80;0.87;;;25.60;99.90;;;;;;5089830;28;20229;-65
2021/09/17 08:43:47;;;;;;;1.30;1.20;;;25.70;99.90;;;;;;5083896;28;20729;-64
2021/09/17 08:46:14;;;;;;;2.73;1.60;;;25.70;99.90;;;;;;5084496;28;20184;-66
2021/09/17 08:48:41;;;;;;;1.60;1.40;;;25.80;99.90;;;;;;5080538;28;20288;-64
2021/09/17 08:51:08;;;;;;;2.60;1.17;;;25.90;99.90;;;;;;5090646;28;20907;-65
2021/09/17 08:53:33;;;;;;;1.03;0.93;;;26.00;99.90;;;;;;5090942;28;20476;-65
2021/09/17 08:55:59;;;;;;;4.30;1.50;;;26.10;99.90;;;;;;5086100;28;20469;-65
2021/09/17 08:58:26;;;;;;;1.53;1.43;;;26.20;99.90;;;;;;5090497;28;20764;-65
2021/09/17 09:00:51;;;;;;;1.20;1.10;;;26.20;99.90;;;;;;5087667;28;20453;-65
2021/09/17 09:03:31;;;;;;;0.73;0.73;;;26.20;99.90;;;;;;5085687;28;20554;-64
2021/09/17 09:06:10;;;;;;;1.20;1.10;;;26.10;99.90;;;;;;5076383;28;20616;-64
2021/09/17 09:08:39;;;;;;;0.97;0.93;;;26.10;99.90;;;;;;5065517;28;20459;-66
2021/09/17 09:11:17;;;;;;;1.33;0.60;;;26.00;99.90;;;;;;5068461;28;20420;-64
2021/09/17 09:14:06;;;;;;;1.60;0.63;;;25.90;99.90;;;;;;5074261;28;20463;-65
2021/09/17 09:16:33;;;;;;;0.90;0.90;;;25.80;99.90;;;;;;5071057;28;20480;-66
2021/09/17 09:19:22;;;;;;;1.40;0.80;;;25.80;99.90;;;;;;5071793;28;20792;-66
2021/09/17 09:22:07;;;;;;;1.10;1.00;;;25.60;99.90;;;;;;5066022;28;20436;-64
2021/09/17 09:24:42;;;;;;;0.60;0.60;;;25.60;99.90;;;;;;5086022;28;20476;-64
2021/09/17 09:27:15;;;;;;;1.60;0.73;;;25.60;99.90;;;;;;5069656;28;20436;-66
2021/09/17 09:29:53;;;;;;;0.77;0.50;;;25.60;99.90;;;;;;5083201;28;20532;-66
2021/09/17 09:32:33;;;;;;;1.10;1.00;;;25.60;99.90;;;;;;5083860;28;20474;-64
2021/09/17 09:35:04;;;;;;;0.67;0.67;;;25.50;99.90;;;;;;5068091;28;20822;-64
2021/09/17 09:37:33;;;;;;;1.33;0.90;;;25.50;99.90;;;;;;5084503;28;20498;-67
2021/09/17 09:40:00;;;;;;;0.90;0.70;;;25.40;99.90;;;;;;5087627;28;20464;-64
2021/09/17 09:42:45;;;;;;;0.90;0.87;;;25.40;99.90;;;;;;5090556;28;20427;-66
2021/09/17 09:45:15;;;;;;;1.20;0.80;;;25.40;99.90;;;;;;5092680;28;20493;-64
2021/09/17 09:47:49;;;;;;;0.87;0.80;;;25.40;99.90;;;;;;5091381;28;20488;-65
2021/09/17 09:50:24;;;;;;;0.90;0.67;;;25.50;99.90;;;;;;5090412;28;20443;-67
2021/09/17 09:53:01;;;;;;;0.60;0.50;;;25.60;99.90;;;;;;5086617;28;20419;-64
2021/09/17 09:55:27;;;;;;;0.67;0.67;;;25.70;99.90;;;;;;5096104;28;21021;-64
2021/09/17 09:57:55;;;;;;;1.17;0.77;;;25.80;99.90;;;;;;5096997;28;20434;-66
2021/09/17 10:00:21;;;;;;;0.70;0.60;;;25.80;99.90;;;;;;5080680;28;20461;-64
2021/09/17 10:02:47;;;;;;;0.73;0.70;;;25.90;99.90;;;;;;5096475;28;20481;-65
2021/09/17 10:05:14;;;;;;;2.10;1.10;;;25.90;99.90;;;;;;5070198;28;20488;-65
2021/09/17 10:07:41;;;;;;;0.80;0.70;;;25.90;99.90;;;;;;5092105;28;20236;-66
2021/09/17 10:10:10;;;;;;;1.47;1.07;;;25.90;99.90;;;;;;5100492;28;20462;-64
2021/09/17 10:12:36;;;;;;;0.87;0.70;;;25.80;99.90;;;;;;5091359;28;20964;-63
2021/09/17 10:15:03;;;;;;;1.77;1.00;;;25.80;99.90;;;;;;5099931;28;20459;-63
2021/09/17 10:17:32;;;;;;;0.90;0.90;;;25.70;99.90;;;;;;5086672;28;20513;-63
2021/09/17 10:19:59;;;;;;;1.37;0.90;;;25.70;99.90;;;;;;5093834;28;20458;-65
2021/09/17 10:22:26;;;;;;;0.93;0.70;;;25.70;99.90;;;;;;5094864;28;20423;-65
2021/09/17 10:25:04;;;;;;;1.00;0.77;;;25.60;99.90;;;;;;5089268;28;20463;-63
2021/09/17 10:27:30;;;;;;;0.83;0.83;;;25.60;99.90;;;;;;5084764;28;20434;-63
2021/09/17 10:30:02;;;;;;;1.07;1.00;;;25.60;99.90;;;;;;5095768;28;20860;-65
2021/09/17 10:32:34;;;;;;;1.53;1.00;;;25.70;99.90;;;;;;5088716;28;20188;-64
2021/09/17 10:35:11;;;;;;;0.70;0.70;;;25.70;99.90;;;;;;5078776;28;20494;-64
2021/09/17 10:38:01;;;;;;;1.70;0.90;;;25.80;99.90;;;;;;5098013;28;20431;-63
2021/09/17 10:40:40;;;;;;;1.10;1.00;;;25.90;99.90;;;;;;5093489;28;20458;-66
2021/09/17 10:43:08;;;;;;;1.20;0.97;;;25.90;99.90;;;;;;5078704;28;20454;-65
2021/09/17 10:45:44;;;;;;;1.13;0.70;;;26.00;99.90;;;;;;5095110;28;20867;-64
2021/09/17 10:48:11;;;;;;;1.60;1.03;;;26.00;99.90;;;;;;5104288;28;20430;-64
2021/09/17 10:50:52;;;;;;;1.93;0.97;;;26.00;99.90;;;;;;5087420;28;20454;-64
2021/09/17 10:53:39;;;;;;;0.60;0.60;;;26.00;99.90;;;;;;5068829;28;20436;-64
2021/09/17 10:56:12;;;;;;;0.60;0.57;;;26.00;99.90;;;;;;5092716;28;20538;-64
2021/09/17 10:58:39;;;;;;;0.50;0.50;;;26.10;99.90;;;;;;5099669;28;20458;-65
2021/09/17 11:01:11;;;;;;;1.07;1.00;;;26.10;99.90;;;;;;5076475;28;20433;-64
2021/09/17 11:03:39;;;;;;;0.60;0.60;;;26.10;99.90;;;;;;5094353;28;20960;-65
2021/09/17 11:06:25;;;;;;;3.00;1.37;;;26.20;99.90;;;;;;5081227;28;20949;-63
2021/09/17 11:08:51;;;;;;;1.13;0.77;;;26.20;99.90;;;;;;5073982;28;20479;-64
2021/09/17 11:11:28;;;;;;;0.70;0.70;;;26.20;99.90;;;;;;5102264;28;20796;-65
2021/09/17 11:13:56;;;;;;;0.90;0.90;;;26.20;99.90;;;;;;5076984;28;20456;-64
2021/09/17 11:16:24;;;;;;;1.13;0.90;;;26.20;99.90;;;;;;5093262;28;20480;-64
2021/09/17 11:18:54;;;;;;;0.77;0.70;;;26.20;99.90;;;;;;5098157;28;20789;-64
2021/09/17 11:21:21;;;;;;;0.60;0.57;;;26.20;99.90;;;;;;5083603;28;21013;-64
2021/09/17 11:23:51;;;;;;;0.60;0.60;;;26.10;99.90;;;;;;5092234;28;20468;-64
2021/09/17 11:26:26;;;;;;;0.70;0.60;;;26.10;99.90;;;;;;5077953;28;20793;-64
2021/09/17 11:28:58;;;;;;;1.23;0.93;;;26.10;99.90;;;;;;5086021;28;20455;-63
2021/09/17 11:31:26;;;;;;;0.70;0.70;;;26.10;99.90;;;;;;5088688;28;20497;-64
2021/09/17 11:33:59;;;;;;;1.07;0.73;;;26.10;99.90;;;;;;5100072;28;20455;-64
2021/09/17 11:36:45;;;;;;;0.83;0.83;;;26.10;99.90;;;;;;5068956;28;20469;-63
2021/09/17 11:39:12;;;;;;;1.07;0.97;;;26.10;99.90;;;;;;5086794;28;20507;-64
2021/09/17 11:41:42;;;;;;;1.63;1.47;;;26.00;99.90;;;;;;5070650;28;20802;-66
2021/09/17 11:44:08;;;;;;;1.40;1.10;;;26.00;99.90;;;;;;5090194;28;20514;-64
2021/09/17 11:46:35;;;;;;;1.53;1.33;;;26.00;99.90;;;;;;5097784;28;20435;-65
2021/09/17 11:49:00;;;;;;;2.20;0.93;;;25.90;99.90;;;;;;5081801;28;20235;-66
2021/09/17 11:51:26;;;;;;;1.40;1.30;;;25.90;99.90;;;;;;5086672;28;20475;-65
2021/09/17 11:53:52;;;;;;;1.07;0.97;;;25.90;99.90;;;;;;5090375;28;20677;-64
2021/09/17 11:56:18;;;;;;;1.03;0.90;;;25.90;99.90;;;;;;5093462;28;20479;-66
2021/09/17 11:58:45;;;;;;;1.13;1.03;;;25.90;99.90;;;;;;5093052;28;20207;-63
2021/09/17 12:01:23;;;;;;;1.10;1.00;;;25.90;99.90;;;;;;5086376;28;20177;-64
2021/09/17 12:03:54;;;;;;;1.23;1.10;;;25.80;99.90;;;;;;5090884;28;20448;-63
2021/09/17 12:06:19;;;;;;;4.27;1.10;;;25.80;99.90;;;;;;5086815;28;20481;-63
2021/09/17 12:08:45;;;;;;;1.17;0.80;;;25.80;99.90;;;;;;5076620;28;20464;-63
2021/09/17 12:11:17;;;;;;;1.97;1.03;;;25.80;99.90;;;;;;5091900;28;20195;-64
2021/09/17 12:13:43;;;;;;;1.10;1.00;;;25.80;99.90;;;;;;5089612;28;20203;-64
2021/09/17 12:16:10;;;;;;;1.13;0.90;;;25.70;99.90;;;;;;5062177;28;20501;-64
2021/09/17 12:18:36;;;;;;;0.90;0.90;;;25.70;99.90;;;;;;5045553;28;20461;-64
2021/09/17 12:21:04;;;;;;;0.80;0.80;;;25.70;99.90;;;;;;5048620;28;20835;-65
2021/09/17 12:23:36;;;;;;;0.90;0.90;;;25.60;99.90;;;;;;5061536;28;20546;-63
2021/09/17 12:26:18;;;;;;;0.90;0.73;;;25.60;99.90;;;;;;5047863;28;20933;-65
2021/09/17 12:28:49;;;;;;;1.57;1.47;;;25.60;99.90;;;;;;5046390;28;20453;-64
2021/09/17 12:31:36;;;;;;;1.63;1.50;;;25.60;99.90;;;;;;5042323;28;20434;-64
2021/09/17 12:34:12;;;;;;;1.73;1.43;;;25.60;99.90;;;;;;5061856;28;20472;-64
2021/09/17 12:36:38;;;;;;;1.23;1.13;;;25.60;99.90;;;;;;5048840;28;20488;-64
2021/09/17 12:39:05;;;;;;;1.50;1.40;;;25.60;99.90;;;;;;5046854;28;20540;-64
2021/09/17 12:41:32;;;;;;;1.80;1.03;;;25.60;99.90;;;;;;5047907;28;20804;-64
2021/09/17 12:44:14;;;;;;;1.20;1.10;;;25.50;99.90;;;;;;5046480;28;20459;-63
2021/09/17 12:46:45;;;;;;;0.90;0.90;;;25.50;99.90;;;;;;5046747;28;20459;-64